createdAt,value
2023-01-31T00:01:06.009Z,91.91
2023-01-31T00:04:18.624Z,91.96
2023-01-31T00:07:30.952Z,91.68
2023-01-31T00:10:44.122Z,92.47
2023-01-31T00:13:58.249Z,93.36
2023-01-31T00:17:10.854Z,94.73
2023-01-31T00:20:23.203Z,96.88
2023-01-31T00:23:36.311Z,97.61
2023-01-31T00:26:50.589Z,97.96
2023-01-31T00:30:03.512Z,98.88
2023-01-31T00:33:15.896Z,99.18
2023-01-31T00:36:30.635Z,99.34
2023-01-31T00:39:43.000Z,99.21
2023-01-31T00:42:55.613Z,99.61
2023-01-31T00:46:07.967Z,99.54
2023-01-31T00:49:20.594Z,100.00
2023-01-31T00:52:33.097Z,100.00
2023-01-31T00:55:45.738Z,100.00
2023-01-31T00:58:58.105Z,100.00
2023-01-31T01:02:11.012Z,100.00
2023-01-31T01:05:23.436Z,100.00
2023-01-31T01:08:37.048Z,100.00
2023-01-31T01:11:49.695Z,100.00
2023-01-31T01:15:02.405Z,100.00
2023-01-31T01:18:15.847Z,100.00
2023-01-31T01:21:29.200Z,100.00
2023-01-31T01:24:44.728Z,99.92
2023-01-31T01:27:57.392Z,99.44
2023-01-31T01:31:11.074Z,98.22
2023-01-31T01:34:26.192Z,97.29
2023-01-31T01:37:38.642Z,95.30
2023-01-31T01:40:51.442Z,95.17
2023-01-31T01:44:05.369Z,95.65
2023-01-31T01:47:36.687Z,95.20
2023-01-31T01:50:49.020Z,93.79
2023-01-31T01:54:04.870Z,94.10
2023-01-31T01:57:18.668Z,94.69
2023-01-31T02:00:31.285Z,94.37
2023-01-31T02:03:44.466Z,94.71
2023-01-31T02:06:56.837Z,94.15
2023-01-31T02:10:16.357Z,94.17
2023-01-31T02:13:29.486Z,94.18
2023-01-31T02:16:41.970Z,94.35
2023-01-31T02:20:46.383Z,94.04
2023-01-31T02:24:13.658Z,94.49
2023-01-31T02:27:46.856Z,94.72
2023-01-31T02:31:11.563Z,94.91
2023-01-31T02:34:56.455Z,94.62
2023-01-31T02:38:30.730Z,94.29
2023-01-31T02:41:54.434Z,94.99
2023-01-31T02:45:11.045Z,95.13
2023-01-31T02:48:52.495Z,95.63
2023-01-31T02:52:27.069Z,96.12
2023-01-31T02:56:18.324Z,96.35
2023-01-31T02:59:32.040Z,96.15
2023-01-31T03:02:44.802Z,96.41
2023-01-31T03:06:36.776Z,96.52
2023-01-31T03:10:15.537Z,97.00
2023-01-31T03:13:48.465Z,97.06
2023-01-31T03:17:29.515Z,96.86
2023-01-31T03:21:03.746Z,96.58
2023-01-31T03:24:17.269Z,96.32
2023-01-31T03:27:30.068Z,95.79
2023-01-31T03:31:20.190Z,95.47
2023-01-31T03:34:32.668Z,95.43
2023-01-31T03:37:52.984Z,95.84
2023-01-31T03:41:12.953Z,95.39
2023-01-31T03:44:36.078Z,95.21
2023-01-31T03:47:50.159Z,94.65
2023-01-31T03:51:06.534Z,94.96
2023-01-31T03:54:26.026Z,95.29
2023-01-31T03:57:40.310Z,94.47
2023-01-31T04:00:53.082Z,93.43
2023-01-31T04:04:12.461Z,93.42
2023-01-31T04:07:25.003Z,93.81
2023-01-31T04:10:37.682Z,93.12
2023-01-31T04:13:50.080Z,93.47
2023-01-31T04:17:02.712Z,93.46
2023-01-31T04:20:15.350Z,93.22
2023-01-31T04:23:27.994Z,93.90
2023-01-31T04:26:40.464Z,93.69
2023-01-31T04:29:53.204Z,93.80
2023-01-31T04:33:05.535Z,93.80
2023-01-31T04:36:18.139Z,93.86
2023-01-31T04:39:30.450Z,93.95
2023-01-31T04:42:43.126Z,94.10
2023-01-31T04:45:55.509Z,93.80
2023-01-31T04:49:08.846Z,93.18
2023-01-31T04:52:21.235Z,93.44
2023-01-31T04:55:33.843Z,93.65
2023-01-31T04:58:46.252Z,93.78
2023-01-31T05:01:59.132Z,93.89
2023-01-31T05:05:12.964Z,94.45
2023-01-31T05:08:25.632Z,95.14
2023-01-31T05:11:38.017Z,96.14
2023-01-31T05:14:51.493Z,97.09
2023-01-31T05:18:04.538Z,97.91
2023-01-31T05:21:17.349Z,98.12
2023-01-31T05:24:31.507Z,98.65
2023-01-31T05:27:44.981Z,98.81
2023-01-31T05:31:05.466Z,98.50
2023-01-31T05:34:18.324Z,98.87
2023-01-31T05:37:31.449Z,98.96
2023-01-31T05:40:44.056Z,99.83
2023-01-31T05:43:56.449Z,100.00
2023-01-31T05:47:09.112Z,100.00
2023-01-31T05:50:21.643Z,100.00
2023-01-31T05:53:34.331Z,100.00
2023-01-31T05:56:46.655Z,100.00
2023-01-31T06:00:00.095Z,100.00
2023-01-31T06:03:12.499Z,100.00
2023-01-31T06:06:25.198Z,100.00
2023-01-31T06:09:38.867Z,100.00
2023-01-31T06:12:51.521Z,100.00
2023-01-31T06:16:04.156Z,100.00
2023-01-31T06:19:16.846Z,100.00
2023-01-31T06:22:29.259Z,100.00
2023-01-31T06:25:41.891Z,100.00
2023-01-31T06:28:55.558Z,100.00
2023-01-31T06:32:08.427Z,100.00
2023-01-31T06:35:21.112Z,100.00
2023-01-31T06:38:33.868Z,100.00
2023-01-31T06:41:46.269Z,99.49
2023-01-31T06:44:58.941Z,98.79
2023-01-31T06:48:12.039Z,97.56
2023-01-31T06:51:24.741Z,96.85
2023-01-31T06:54:37.114Z,97.13
2023-01-31T06:57:49.936Z,96.25
2023-01-31T07:01:14.729Z,95.37
2023-01-31T07:04:27.466Z,94.66
2023-01-31T07:07:39.937Z,93.73
2023-01-31T07:10:52.561Z,93.52
2023-01-31T07:14:05.070Z,93.41
2023-01-31T07:17:18.023Z,92.53
2023-01-31T07:20:30.455Z,92.51
2023-01-31T07:23:43.203Z,90.95
2023-01-31T07:26:55.661Z,90.41
2023-01-31T07:30:09.076Z,89.99
2023-01-31T07:33:21.478Z,90.14
2023-01-31T07:36:34.124Z,90.00
2023-01-31T07:39:46.493Z,89.31
2023-01-31T07:42:59.532Z,88.52
2023-01-31T07:46:12.499Z,87.96
2023-01-31T07:49:25.289Z,87.58
2023-01-31T07:52:37.683Z,87.42
2023-01-31T07:55:50.725Z,87.08
2023-01-31T07:59:03.175Z,85.90
2023-01-31T08:02:35.487Z,86.75
2023-01-31T08:05:48.185Z,85.84
2023-01-31T08:09:00.943Z,85.24
2023-01-31T08:12:13.650Z,85.80
2023-01-31T08:15:26.190Z,85.79
2023-01-31T08:18:38.922Z,85.89
2023-01-31T08:21:51.332Z,85.01
2023-01-31T08:25:04.503Z,84.63
2023-01-31T08:28:16.902Z,83.17
2023-01-31T08:31:29.865Z,82.69
2023-01-31T08:34:43.527Z,80.05
2023-01-31T08:38:07.024Z,78.40
2023-01-31T08:41:31.427Z,79.02
2023-01-31T08:44:44.215Z,78.93
2023-01-31T08:47:57.686Z,77.68
2023-01-31T08:51:11.634Z,77.36
2023-01-31T08:54:24.099Z,77.61
2023-01-31T08:57:41.080Z,78.47
2023-01-31T09:01:27.319Z,78.45
2023-01-31T09:04:40.252Z,78.06
2023-01-31T09:07:52.907Z,76.76
2023-01-31T09:11:05.618Z,76.57
2023-01-31T09:14:17.935Z,76.45
2023-01-31T09:17:31.016Z,76.24
2023-01-31T09:20:43.354Z,75.45
2023-01-31T09:23:58.909Z,74.82
2023-01-31T09:27:11.246Z,74.10
2023-01-31T09:30:24.058Z,73.60
2023-01-31T09:33:37.050Z,74.23
2023-01-31T09:36:54.222Z,74.95
2023-01-31T09:40:06.935Z,74.57
2023-01-31T09:43:20.168Z,73.99
2023-01-31T09:46:37.675Z,73.00
2023-01-31T09:49:52.887Z,73.44
2023-01-31T09:53:05.245Z,72.24
2023-01-31T09:56:35.119Z,73.75
2023-01-31T10:00:03.333Z,73.75
2023-01-31T10:03:39.903Z,73.93
2023-01-31T10:07:12.299Z,73.02
2023-01-31T10:10:24.623Z,72.46
2023-01-31T10:13:47.052Z,71.33
2023-01-31T10:17:20.105Z,71.51
2023-01-31T10:20:57.367Z,69.81
2023-01-31T10:24:12.217Z,69.13
2023-01-31T10:27:35.367Z,67.98
2023-01-31T10:31:03.874Z,68.81
2023-01-31T10:34:23.517Z,69.91
2023-01-31T10:37:56.594Z,72.27
2023-01-31T10:41:14.772Z,71.22
2023-01-31T10:44:43.743Z,71.95
2023-01-31T10:48:16.124Z,72.61
2023-01-31T10:51:45.506Z,72.16
2023-01-31T10:55:36.678Z,72.03
2023-01-31T10:58:49.473Z,70.42
2023-01-31T11:02:02.968Z,67.57
2023-01-31T11:05:17.862Z,67.58
2023-01-31T11:08:33.490Z,68.30
2023-01-31T11:12:02.582Z,67.82
2023-01-31T11:15:17.703Z,67.24
2023-01-31T11:18:35.304Z,69.15
2023-01-31T11:21:49.739Z,68.97
2023-01-31T11:25:04.159Z,69.04
2023-01-31T11:28:21.606Z,69.08
2023-01-31T11:31:35.963Z,68.62
2023-01-31T11:35:15.276Z,68.35
2023-01-31T11:38:27.830Z,67.48
2023-01-31T11:41:41.193Z,67.14
2023-01-31T11:44:57.705Z,67.35
2023-01-31T11:48:13.829Z,66.72
2023-01-31T11:51:30.717Z,66.37
2023-01-31T11:54:47.240Z,64.93
2023-01-31T11:57:59.967Z,64.38
2023-01-31T12:01:12.563Z,64.83
2023-01-31T12:04:35.735Z,64.35
2023-01-31T12:07:50.391Z,64.96
2023-01-31T12:11:21.419Z,63.25
2023-01-31T12:14:41.277Z,63.88
2023-01-31T12:17:53.948Z,63.55
2023-01-31T12:21:27.720Z,62.23
2023-01-31T12:24:59.198Z,62.88
2023-01-31T12:28:29.766Z,62.76
2023-01-31T12:31:55.332Z,64.04
2023-01-31T12:35:16.004Z,63.73
2023-01-31T12:38:41.210Z,63.82
2023-01-31T12:41:57.727Z,63.05
2023-01-31T12:45:45.172Z,62.62
2023-01-31T12:49:06.203Z,62.24
2023-01-31T12:52:20.508Z,60.63
2023-01-31T12:55:47.509Z,59.73
2023-01-31T12:59:21.642Z,59.81
2023-01-31T13:03:13.930Z,59.34
2023-01-31T13:06:32.733Z,59.50
2023-01-31T13:09:45.073Z,60.26
2023-01-31T13:12:57.851Z,59.38
2023-01-31T13:16:16.846Z,59.20
2023-01-31T13:19:46.792Z,59.70
2023-01-31T13:23:00.961Z,59.32
2023-01-31T13:26:28.234Z,59.24
2023-01-31T13:29:53.899Z,58.28
2023-01-31T13:33:28.596Z,58.98
2023-01-31T13:36:49.947Z,58.97
2023-01-31T13:40:21.580Z,59.59
2023-01-31T13:43:33.975Z,60.71
2023-01-31T13:46:53.053Z,61.48
2023-01-31T13:50:17.677Z,62.57
2023-01-31T13:53:34.049Z,61.76
2023-01-31T13:56:50.337Z,61.72
2023-01-31T14:00:25.815Z,61.19
2023-01-31T14:04:15.527Z,59.79
2023-01-31T14:07:28.902Z,57.25
2023-01-31T14:10:42.700Z,58.54
2023-01-31T14:14:10.076Z,59.93
2023-01-31T14:17:28.574Z,63.18
2023-01-31T14:20:40.801Z,63.42
2023-01-31T14:23:53.395Z,64.05
2023-01-31T14:27:17.502Z,64.66
2023-01-31T14:30:48.196Z,63.74
2023-01-31T14:34:00.567Z,60.89
2023-01-31T14:37:29.764Z,59.59
2023-01-31T14:41:12.749Z,59.30
2023-01-31T14:44:44.086Z,60.36
2023-01-31T14:48:13.304Z,61.18
2023-01-31T14:51:25.774Z,62.25
2023-01-31T14:54:59.153Z,63.71
2023-01-31T14:58:18.732Z,65.63
2023-01-31T15:01:35.835Z,65.91
2023-01-31T15:04:58.010Z,66.95
2023-01-31T15:08:13.229Z,67.94
2023-01-31T15:11:41.016Z,69.44
2023-01-31T15:14:55.183Z,71.95
2023-01-31T15:18:19.414Z,73.59
2023-01-31T15:21:33.878Z,74.48
2023-01-31T15:24:49.325Z,75.23
2023-01-31T15:28:01.745Z,76.06
2023-01-31T15:31:21.866Z,76.54
2023-01-31T15:34:44.433Z,77.32
2023-01-31T15:38:05.900Z,78.66
2023-01-31T15:41:24.131Z,80.05
2023-01-31T15:44:36.855Z,81.26
2023-01-31T15:48:03.309Z,81.73
2023-01-31T15:51:16.092Z,82.06
2023-01-31T15:54:28.484Z,82.45
2023-01-31T15:57:57.739Z,82.82
2023-01-31T16:01:14.261Z,83.09
2023-01-31T16:04:27.490Z,83.32
2023-01-31T16:07:40.858Z,83.34
2023-01-31T16:10:53.483Z,83.16
2023-01-31T16:14:06.166Z,83.43
2023-01-31T16:17:19.648Z,83.19
2023-01-31T16:20:43.828Z,83.37
2023-01-31T16:24:03.417Z,83.38
2023-01-31T16:27:16.607Z,84.54
2023-01-31T16:30:30.616Z,85.08
2023-01-31T16:33:48.812Z,85.48
2023-01-31T16:37:05.463Z,86.07
2023-01-31T16:40:23.323Z,86.19
2023-01-31T16:43:36.144Z,86.80
2023-01-31T16:46:49.885Z,87.53
2023-01-31T16:50:17.872Z,88.56
2023-01-31T16:53:31.213Z,88.95
2023-01-31T16:56:47.851Z,89.28
2023-01-31T17:00:00.416Z,89.37
2023-01-31T17:03:17.600Z,89.29
2023-01-31T17:06:29.941Z,89.09
2023-01-31T17:09:42.620Z,89.23
2023-01-31T17:13:02.103Z,89.04
2023-01-31T17:16:27.251Z,88.91
2023-01-31T17:19:39.574Z,89.28
2023-01-31T17:23:07.411Z,88.82
2023-01-31T17:26:21.396Z,88.50
2023-01-31T17:29:34.046Z,88.55
2023-01-31T17:32:46.723Z,89.19
2023-01-31T17:36:00.146Z,88.73
2023-01-31T17:39:12.565Z,89.46
2023-01-31T17:42:25.193Z,89.45
2023-01-31T17:45:40.472Z,89.80
2023-01-31T17:48:53.119Z,90.56
2023-01-31T17:52:05.541Z,91.08
2023-01-31T17:55:19.772Z,91.68
2023-01-31T17:58:32.335Z,91.51
2023-01-31T18:01:45.036Z,91.48
2023-01-31T18:04:57.680Z,91.17
2023-01-31T18:08:10.054Z,91.42
2023-01-31T18:11:22.722Z,92.26
2023-01-31T18:14:35.121Z,92.13
2023-01-31T18:17:47.784Z,92.11
2023-01-31T18:21:00.229Z,91.66
2023-01-31T18:24:12.907Z,91.66
2023-01-31T18:27:25.259Z,91.55
2023-01-31T18:30:37.892Z,92.29
2023-01-31T18:33:50.243Z,93.01
2023-01-31T18:37:06.729Z,92.67
2023-01-31T18:40:19.160Z,92.84
2023-01-31T18:43:31.854Z,92.60
2023-01-31T18:46:44.205Z,92.94
2023-01-31T18:49:56.921Z,92.45
2023-01-31T18:53:09.360Z,92.92
2023-01-31T18:56:23.727Z,92.68
2023-01-31T18:59:36.174Z,93.40
2023-01-31T19:02:52.047Z,92.46
2023-01-31T19:06:08.094Z,94.04
2023-01-31T19:09:21.025Z,94.37
2023-01-31T19:12:33.985Z,94.14
2023-01-31T19:15:46.655Z,93.51
2023-01-31T19:18:59.015Z,93.48
2023-01-31T19:22:11.646Z,92.58
2023-01-31T19:25:24.082Z,91.97
2023-01-31T19:28:37.508Z,91.93
2023-01-31T19:31:49.968Z,91.85
2023-01-31T19:35:02.912Z,90.99
2023-01-31T19:38:15.332Z,90.31
2023-01-31T19:41:28.274Z,90.42
2023-01-31T19:44:41.830Z,90.08
2023-01-31T19:47:56.162Z,89.42
2023-01-31T19:51:11.091Z,88.68
2023-01-31T19:54:23.673Z,87.53
2023-01-31T19:57:36.011Z,87.95
2023-01-31T20:00:52.385Z,88.60
2023-01-31T20:04:05.088Z,89.61
2023-01-31T20:07:17.405Z,89.62
2023-01-31T20:10:31.177Z,90.35
2023-01-31T20:13:43.497Z,90.06
2023-01-31T20:16:56.215Z,90.03
2023-01-31T20:20:09.520Z,89.74
2023-01-31T20:23:22.187Z,88.92
2023-01-31T20:26:35.406Z,88.72
2023-01-31T20:29:48.087Z,88.29
2023-01-31T20:33:00.509Z,88.12
2023-01-31T20:36:13.195Z,89.60
2023-01-31T20:39:25.797Z,90.16
2023-01-31T20:42:38.456Z,90.82
2023-01-31T20:45:50.911Z,90.67
2023-01-31T20:49:06.750Z,90.87
2023-01-31T20:52:21.424Z,91.00
2023-01-31T20:55:34.095Z,91.44
2023-01-31T20:58:46.774Z,92.62
2023-01-31T21:01:59.425Z,93.68
2023-01-31T21:05:12.007Z,95.18
2023-01-31T21:08:24.666Z,96.82
2023-01-31T21:11:37.107Z,98.08
2023-01-31T21:14:49.732Z,99.68
2023-01-31T21:18:02.063Z,100.00
2023-01-31T21:21:22.728Z,100.00
2023-01-31T21:24:35.067Z,100.00
2023-01-31T21:27:50.005Z,100.00
2023-01-31T21:31:04.123Z,100.00
2023-01-31T21:34:16.809Z,100.00
2023-01-31T21:37:29.272Z,100.00
2023-01-31T21:40:41.864Z,100.00
2023-01-31T21:43:54.472Z,100.00
2023-01-31T21:47:10.139Z,100.00
2023-01-31T21:50:22.789Z,100.00
2023-01-31T21:53:35.821Z,100.00
2023-01-31T21:56:48.139Z,100.00
2023-01-31T22:00:00.834Z,100.00
2023-01-31T22:03:13.178Z,100.00
2023-01-31T22:06:30.996Z,100.00
2023-01-31T22:09:43.836Z,100.00
2023-01-31T22:12:56.428Z,100.00
2023-01-31T22:16:09.849Z,100.00
2023-01-31T22:19:22.601Z,100.00
2023-01-31T22:22:34.983Z,100.00
2023-01-31T22:25:47.599Z,100.00
2023-01-31T22:29:01.027Z,100.00
2023-01-31T22:32:13.683Z,100.00
2023-01-31T22:35:26.631Z,100.00
2023-01-31T22:38:39.477Z,100.00
2023-01-31T22:41:51.808Z,100.00
2023-01-31T22:45:04.834Z,100.00
2023-01-31T22:48:18.699Z,100.00
2023-01-31T22:51:31.329Z,100.00
2023-01-31T22:54:43.692Z,100.00
2023-01-31T22:57:58.283Z,100.00
2023-01-31T23:01:17.254Z,100.00
2023-01-31T23:04:29.920Z,100.00
2023-01-31T23:07:42.293Z,100.00
2023-01-31T23:10:55.387Z,100.00
2023-01-31T23:14:07.827Z,100.00
2023-01-31T23:17:38.631Z,100.00
2023-01-31T23:20:50.998Z,100.00
2023-01-31T23:24:03.863Z,100.00
2023-01-31T23:27:16.153Z,100.00
2023-01-31T23:30:28.751Z,100.00
2023-01-31T23:33:41.074Z,100.00
2023-01-31T23:36:53.683Z,100.00
2023-01-31T23:40:06.594Z,100.00
2023-01-31T23:43:19.672Z,100.00
2023-01-31T23:46:32.281Z,100.00
2023-01-31T23:49:45.015Z,100.00
2023-01-31T23:52:57.426Z,100.00
2023-01-31T23:56:10.035Z,100.00
2023-01-31T23:59:22.432Z,100.00
